createdAt,value
2019-05-02T00:00:55.081Z,7.10
2019-05-02T00:03:28.792Z,7.20
2019-05-02T00:06:02.891Z,7.20
2019-05-02T00:08:33.220Z,7.20
2019-05-02T00:11:06.029Z,7.20
2019-05-02T00:13:36.725Z,7.10
2019-05-02T00:16:09.224Z,7.20
2019-05-02T00:18:40.018Z,7.20
2019-05-02T00:21:11.173Z,7.10
2019-05-02T00:23:41.873Z,7.10
2019-05-02T00:26:12.824Z,7.10
2019-05-02T00:28:48.034Z,7.00
2019-05-02T00:31:19.259Z,7.10
2019-05-02T00:33:49.878Z,6.90
2019-05-02T00:36:20.436Z,6.90
2019-05-02T00:38:51.517Z,6.80
2019-05-02T00:41:22.432Z,6.70
2019-05-02T00:43:53.585Z,6.60
2019-05-02T00:46:24.613Z,6.60
2019-05-02T00:48:59.938Z,6.70
2019-05-02T00:51:30.589Z,6.60
2019-05-02T00:54:01.518Z,6.70
2019-05-02T00:56:32.413Z,6.60
2019-05-02T00:59:07.437Z,6.60
2019-05-02T01:02:05.314Z,6.60
2019-05-02T01:04:38.609Z,6.50
2019-05-02T01:07:10.166Z,6.40
2019-05-02T01:09:42.102Z,6.30
2019-05-02T01:12:25.848Z,6.40
2019-05-02T01:14:45.906Z,6.30
2019-05-02T01:17:16.540Z,6.30
2019-05-02T01:19:51.384Z,6.30
2019-05-02T01:22:20.696Z,6.30
2019-05-02T01:24:51.500Z,6.20
2019-05-02T01:27:47.633Z,6.20
2019-05-02T01:30:28.955Z,6.10
2019-05-02T01:33:15.309Z,6.10
2019-05-02T01:36:06.566Z,6.10
2019-05-02T01:38:41.615Z,6.00
2019-05-02T01:41:14.455Z,5.90
2019-05-02T01:43:45.791Z,5.90
2019-05-02T01:46:17.138Z,6.00
2019-05-02T01:48:48.900Z,6.00
2019-05-02T01:51:19.515Z,5.90
2019-05-02T01:53:50.397Z,5.80
2019-05-02T01:56:21.014Z,5.80
2019-05-02T01:58:53.154Z,5.80
2019-05-02T02:01:24.543Z,5.80
2019-05-02T02:03:55.425Z,5.80
2019-05-02T02:06:26.080Z,5.70
2019-05-02T02:08:57.078Z,5.70
2019-05-02T02:11:28.479Z,5.60
2019-05-02T02:14:00.710Z,5.60
2019-05-02T02:16:35.238Z,5.60
2019-05-02T02:19:18.622Z,5.60
2019-05-02T02:22:08.483Z,5.60
2019-05-02T02:24:42.965Z,5.60
2019-05-02T02:27:13.555Z,5.60
2019-05-02T02:29:45.902Z,5.60
2019-05-02T02:32:20.077Z,5.50
2019-05-02T02:34:49.849Z,5.50
2019-05-02T02:37:20.651Z,5.50
2019-05-02T02:39:54.219Z,5.50
2019-05-02T02:42:25.299Z,5.40
2019-05-02T02:45:05.673Z,5.40
2019-05-02T02:47:36.515Z,5.40
2019-05-02T02:50:08.002Z,5.40
2019-05-02T02:52:44.499Z,5.30
2019-05-02T02:55:16.104Z,5.20
2019-05-02T02:57:43.560Z,5.20
2019-05-02T03:00:14.594Z,5.20
2019-05-02T03:02:48.557Z,5.20
2019-05-02T03:05:25.692Z,5.20
2019-05-02T03:07:51.645Z,5.20
2019-05-02T03:10:22.217Z,5.10
2019-05-02T03:13:14.951Z,5.10
2019-05-02T03:15:48.742Z,5.00
2019-05-02T03:18:19.537Z,5.00
2019-05-02T03:20:50.321Z,5.00
2019-05-02T03:23:22.246Z,5.00
2019-05-02T03:25:53.811Z,4.90
2019-05-02T03:28:24.636Z,4.80
2019-05-02T03:30:55.705Z,4.80
2019-05-02T03:33:26.587Z,4.90
2019-05-02T03:35:57.820Z,4.80
2019-05-02T03:38:34.908Z,4.70
2019-05-02T03:41:01.738Z,4.80
2019-05-02T03:43:32.560Z,4.70
2019-05-02T03:46:03.253Z,4.80
2019-05-02T03:48:33.902Z,4.70
2019-05-02T03:51:05.199Z,4.60
2019-05-02T03:53:36.977Z,4.70
2019-05-02T03:56:11.379Z,4.70
2019-05-02T03:58:39.977Z,4.70
2019-05-02T04:01:10.894Z,4.50
2019-05-02T04:03:43.750Z,4.40
2019-05-02T04:06:21.106Z,4.40
2019-05-02T04:08:58.841Z,4.50
2019-05-02T04:11:25.496Z,4.50
2019-05-02T04:13:58.410Z,4.60
2019-05-02T04:16:30.424Z,4.60
2019-05-02T04:19:05.784Z,4.60
2019-05-02T04:21:37.476Z,4.70
2019-05-02T04:24:13.369Z,4.70
2019-05-02T04:26:52.648Z,4.80
2019-05-02T04:29:14.645Z,4.70
2019-05-02T04:31:46.002Z,4.70
2019-05-02T04:34:17.879Z,4.80
2019-05-02T04:37:00.007Z,4.80
2019-05-02T04:39:22.039Z,4.90
2019-05-02T04:41:52.754Z,4.90
2019-05-02T04:44:32.398Z,4.80
2019-05-02T04:47:02.663Z,5.00
2019-05-02T04:49:35.118Z,5.00
2019-05-02T04:52:06.964Z,4.90
2019-05-02T04:54:33.747Z,5.00
2019-05-02T04:57:04.437Z,5.10
2019-05-02T04:59:35.073Z,5.10
2019-05-02T05:02:08.711Z,5.30
2019-05-02T05:04:45.996Z,5.20
2019-05-02T05:07:10.750Z,5.40
2019-05-02T05:09:47.978Z,5.40
2019-05-02T05:12:13.968Z,5.40
2019-05-02T05:14:47.464Z,5.50
2019-05-02T05:17:19.985Z,5.50
2019-05-02T05:19:50.488Z,5.50
2019-05-02T05:22:21.060Z,5.60
2019-05-02T05:24:59.019Z,5.70
2019-05-02T05:27:29.842Z,5.90
2019-05-02T05:30:07.842Z,6.20
2019-05-02T05:32:33.399Z,6.30
2019-05-02T05:35:09.167Z,6.30
2019-05-02T05:37:38.206Z,6.30
2019-05-02T05:40:09.209Z,6.40
2019-05-02T05:42:39.931Z,6.60
2019-05-02T05:45:13.832Z,7.10
2019-05-02T05:47:43.872Z,7.70
2019-05-02T05:50:17.502Z,7.50
2019-05-02T05:52:48.123Z,7.50
2019-05-02T05:55:23.997Z,7.70
2019-05-02T05:57:59.704Z,7.80
2019-05-02T06:00:24.293Z,7.60
2019-05-02T06:03:01.308Z,8.00
2019-05-02T06:05:27.682Z,8.20
2019-05-02T06:07:58.296Z,8.40
2019-05-02T06:10:29.030Z,8.40
2019-05-02T06:12:59.970Z,8.60
2019-05-02T06:15:33.832Z,8.60
2019-05-02T06:18:04.732Z,8.80
2019-05-02T06:20:35.994Z,9.60
2019-05-02T06:23:07.483Z,9.30
2019-05-02T06:25:38.236Z,9.50
2019-05-02T06:28:09.202Z,9.70
2019-05-02T06:30:43.864Z,9.20
2019-05-02T06:33:14.724Z,9.60
2019-05-02T06:35:46.288Z,9.70
2019-05-02T06:38:21.567Z,9.70
2019-05-02T06:40:49.857Z,9.90
2019-05-02T06:43:20.649Z,11.00
2019-05-02T06:45:51.507Z,10.70
2019-05-02T06:48:22.151Z,10.80
2019-05-02T06:50:53.147Z,11.10
2019-05-02T06:53:24.040Z,11.60
2019-05-02T06:55:54.752Z,11.50
2019-05-02T06:58:25.373Z,12.30
2019-05-02T07:00:58.830Z,12.80
2019-05-02T07:03:28.685Z,13.30
2019-05-02T07:06:02.788Z,13.80
2019-05-02T07:08:32.244Z,13.70
2019-05-02T07:11:03.358Z,14.10
2019-05-02T07:13:36.339Z,14.50
2019-05-02T07:16:37.723Z,15.00
2019-05-02T07:19:27.534Z,14.40
2019-05-02T07:22:03.803Z,14.20
2019-05-02T07:24:32.695Z,14.90
2019-05-02T07:27:04.160Z,15.10
2019-05-02T07:29:35.378Z,15.00
2019-05-02T07:32:06.336Z,15.40
2019-05-02T07:34:39.150Z,15.10
2019-05-02T07:37:14.030Z,15.30
2019-05-02T07:39:45.062Z,15.40
2019-05-02T07:42:22.087Z,16.40
2019-05-02T07:44:53.150Z,17.10
2019-05-02T07:47:24.086Z,17.00
2019-05-02T07:49:54.725Z,16.30
2019-05-02T07:52:28.826Z,17.40
2019-05-02T07:55:01.135Z,16.70
2019-05-02T07:57:30.649Z,17.70
2019-05-02T08:00:02.798Z,17.20
2019-05-02T08:02:33.483Z,16.90
2019-05-02T08:05:04.432Z,17.30
2019-05-02T08:07:35.212Z,17.30
2019-05-02T08:10:06.811Z,17.30
2019-05-02T08:12:37.386Z,17.70
2019-05-02T08:15:13.174Z,18.30
2019-05-02T08:17:41.594Z,18.90
2019-05-02T08:20:13.560Z,19.40
2019-05-02T08:22:49.033Z,19.70
2019-05-02T08:25:19.750Z,19.70
2019-05-02T08:27:58.868Z,19.40
2019-05-02T08:30:35.461Z,19.30
2019-05-02T08:33:06.370Z,19.20
2019-05-02T08:35:37.269Z,18.80
2019-05-02T08:38:12.568Z,19.70
2019-05-02T08:40:42.340Z,20.80
2019-05-02T08:43:13.861Z,20.20
2019-05-02T08:45:46.018Z,19.70
2019-05-02T08:48:16.974Z,20.10
2019-05-02T08:50:47.892Z,21.30
2019-05-02T08:53:19.832Z,20.70
2019-05-02T08:55:51.385Z,20.80
2019-05-02T08:58:22.396Z,20.50
2019-05-02T09:00:53.295Z,21.10
2019-05-02T09:03:24.271Z,21.10
2019-05-02T09:06:05.189Z,20.60
2019-05-02T09:08:27.870Z,21.10
2019-05-02T09:10:58.625Z,21.90
2019-05-02T09:13:29.718Z,22.20
2019-05-02T09:16:03.563Z,22.50
2019-05-02T09:18:38.782Z,22.10
2019-05-02T09:21:06.146Z,22.60
2019-05-02T09:23:37.357Z,23.00
2019-05-02T09:26:08.322Z,21.50
2019-05-02T09:28:39.508Z,21.80
2019-05-02T09:31:12.103Z,22.50
2019-05-02T09:33:46.861Z,21.60
2019-05-02T09:36:15.653Z,21.50
2019-05-02T09:38:48.827Z,21.70
2019-05-02T09:41:21.952Z,21.90
2019-05-02T09:43:52.544Z,22.80
2019-05-02T09:46:23.507Z,23.00
2019-05-02T09:48:57.055Z,22.40
2019-05-02T09:51:27.018Z,21.30
2019-05-02T09:54:04.695Z,21.30
2019-05-02T09:56:32.409Z,22.10
2019-05-02T09:59:23.228Z,21.40
2019-05-02T10:01:38.275Z,21.00
2019-05-02T10:04:12.022Z,20.90
2019-05-02T10:06:43.336Z,20.30
2019-05-02T10:09:18.389Z,20.40
2019-05-02T10:11:47.021Z,20.60
2019-05-02T10:14:17.991Z,20.50
2019-05-02T10:16:48.981Z,21.20
2019-05-02T10:19:23.885Z,20.50
2019-05-02T10:21:56.249Z,21.20
2019-05-02T10:24:25.618Z,21.40
2019-05-02T10:27:04.140Z,21.40
2019-05-02T10:29:29.895Z,21.40
2019-05-02T10:32:07.704Z,21.60
2019-05-02T10:34:36.169Z,21.90
2019-05-02T10:37:07.067Z,22.80
2019-05-02T10:39:38.096Z,22.40
2019-05-02T10:42:09.078Z,22.10
2019-05-02T10:44:39.987Z,21.80
2019-05-02T10:47:12.710Z,21.70
2019-05-02T10:49:57.429Z,20.60
2019-05-02T10:52:29.906Z,21.00
2019-05-02T10:55:02.656Z,21.10
2019-05-02T10:57:33.838Z,21.60
2019-05-02T11:00:06.496Z,20.90
2019-05-02T11:02:47.715Z,21.30
2019-05-02T11:05:22.551Z,21.20
2019-05-02T11:07:56.891Z,21.50
2019-05-02T11:10:26.655Z,21.80
2019-05-02T11:13:19.343Z,21.80
2019-05-02T11:16:24.529Z,20.90
2019-05-02T11:19:02.496Z,20.90
2019-05-02T11:21:34.053Z,20.80
2019-05-02T11:24:04.878Z,21.30
2019-05-02T11:26:35.832Z,21.20
2019-05-02T11:29:07.076Z,21.20
2019-05-02T11:31:37.985Z,21.10
2019-05-02T11:34:08.948Z,20.60
2019-05-02T11:36:41.504Z,21.00
2019-05-02T11:39:19.704Z,20.90
2019-05-02T11:41:46.461Z,20.50
2019-05-02T11:44:17.072Z,20.20
2019-05-02T11:46:48.034Z,20.50
2019-05-02T11:49:18.965Z,20.40
2019-05-02T11:51:52.600Z,20.70
2019-05-02T11:54:22.787Z,20.50
2019-05-02T11:56:53.812Z,20.00
2019-05-02T11:59:28.003Z,20.90
2019-05-02T12:02:22.603Z,21.00
2019-05-02T12:04:55.549Z,21.40
2019-05-02T12:07:26.929Z,21.20
2019-05-02T12:09:57.813Z,20.70
2019-05-02T12:12:34.282Z,20.50
2019-05-02T12:15:02.538Z,20.90
2019-05-02T12:17:33.248Z,20.30
2019-05-02T12:20:04.080Z,19.90
2019-05-02T12:22:36.529Z,20.10
2019-05-02T12:25:07.565Z,20.20
2019-05-02T12:27:38.903Z,20.40
2019-05-02T12:30:11.768Z,20.50
2019-05-02T12:32:42.867Z,20.30
2019-05-02T12:35:13.919Z,20.60
2019-05-02T12:37:47.079Z,20.70
2019-05-02T12:40:18.883Z,20.70
2019-05-02T12:42:49.968Z,20.90
2019-05-02T12:45:21.937Z,20.70
2019-05-02T12:47:52.678Z,20.60
2019-05-02T12:50:23.299Z,20.60
2019-05-02T12:52:55.655Z,20.50
2019-05-02T12:55:26.865Z,20.70
2019-05-02T12:57:57.752Z,20.20
2019-05-02T13:00:28.640Z,19.40
2019-05-02T13:03:04.586Z,19.70
2019-05-02T13:05:35.840Z,20.00
2019-05-02T13:08:06.708Z,20.00
2019-05-02T13:11:06.656Z,19.90
2019-05-02T13:13:35.923Z,20.30
2019-05-02T13:16:08.016Z,20.30
2019-05-02T13:18:39.030Z,20.40
2019-05-02T13:21:15.184Z,20.70
2019-05-02T13:24:07.209Z,20.60
2019-05-02T13:26:36.229Z,20.90
2019-05-02T13:29:07.150Z,20.90
2019-05-02T13:31:47.810Z,20.50
2019-05-02T13:34:43.843Z,20.40
2019-05-02T13:37:16.981Z,20.10
2019-05-02T13:39:58.942Z,20.10
2019-05-02T13:42:29.806Z,20.30
2019-05-02T13:45:07.282Z,19.80
2019-05-02T13:47:38.233Z,19.70
2019-05-02T13:50:10.236Z,20.10
2019-05-02T13:52:44.987Z,19.90
2019-05-02T13:55:15.187Z,20.10
2019-05-02T13:57:49.297Z,20.20
2019-05-02T14:00:27.050Z,20.10
2019-05-02T14:02:58.120Z,19.90
2019-05-02T14:05:31.790Z,19.90
2019-05-02T14:08:36.809Z,19.90
2019-05-02T14:11:24.612Z,19.90
2019-05-02T14:13:55.315Z,20.00
2019-05-02T14:16:27.498Z,20.00
2019-05-02T14:18:58.133Z,19.90
2019-05-02T14:21:29.049Z,20.10
2019-05-02T14:24:01.683Z,19.70
2019-05-02T14:26:33.285Z,19.90
2019-05-02T14:29:07.138Z,19.70
2019-05-02T14:31:37.012Z,19.70
2019-05-02T14:34:25.353Z,19.70
2019-05-02T14:36:59.190Z,19.60
2019-05-02T14:39:28.925Z,19.30
2019-05-02T14:42:01.563Z,19.60
2019-05-02T14:44:57.971Z,19.80
2019-05-02T14:47:05.143Z,19.70
2019-05-02T14:49:35.793Z,20.00
2019-05-02T14:52:08.838Z,19.90
2019-05-02T14:54:43.742Z,19.80
2019-05-02T14:57:17.029Z,19.90
2019-05-02T14:59:59.305Z,19.90
2019-05-02T15:02:49.056Z,19.50
2019-05-02T15:05:19.276Z,19.70
2019-05-02T15:07:51.694Z,19.60
2019-05-02T15:10:22.825Z,19.50
2019-05-02T15:12:59.762Z,19.50
2019-05-02T15:15:27.927Z,19.40
2019-05-02T15:17:59.367Z,19.20
2019-05-02T15:20:38.601Z,19.10
2019-05-02T15:23:07.167Z,19.40
2019-05-02T15:25:36.140Z,19.20
2019-05-02T15:28:09.908Z,19.20
2019-05-02T15:30:44.817Z,18.80
2019-05-02T15:33:17.132Z,18.70
2019-05-02T15:35:52.715Z,18.50
2019-05-02T15:38:28.018Z,18.30
2019-05-02T15:40:59.243Z,18.30
2019-05-02T15:43:31.807Z,18.30
2019-05-02T15:46:02.775Z,18.30
2019-05-02T15:48:33.470Z,18.40
2019-05-02T15:51:06.115Z,18.40
2019-05-02T15:53:49.746Z,18.50
2019-05-02T15:56:20.234Z,18.40
2019-05-02T15:58:52.184Z,18.50
2019-05-02T16:01:46.020Z,18.40
2019-05-02T16:04:17.162Z,18.40
2019-05-02T16:06:49.233Z,18.40
2019-05-02T16:09:21.627Z,18.30
2019-05-02T16:11:56.882Z,18.30
2019-05-02T16:14:27.010Z,18.20
2019-05-02T16:17:01.157Z,18.20
2019-05-02T16:19:34.086Z,18.20
2019-05-02T16:22:12.350Z,18.00
2019-05-02T16:24:43.944Z,18.10
2019-05-02T16:27:21.156Z,18.10
2019-05-02T16:29:48.983Z,17.80
2019-05-02T16:32:37.902Z,17.70
2019-05-02T16:35:15.377Z,17.70
2019-05-02T16:37:46.761Z,17.60
2019-05-02T16:40:23.830Z,17.60
2019-05-02T16:42:52.112Z,17.50
2019-05-02T16:45:24.615Z,17.50
2019-05-02T16:48:00.201Z,17.30
2019-05-02T16:50:34.793Z,17.00
2019-05-02T16:53:02.301Z,17.00
2019-05-02T16:55:33.905Z,17.10
2019-05-02T16:58:07.199Z,17.10
2019-05-02T17:00:44.018Z,17.00
2019-05-02T17:03:09.671Z,16.80
2019-05-02T17:05:44.098Z,16.80
2019-05-02T17:08:49.441Z,16.40
2019-05-02T17:11:27.807Z,16.00
2019-05-02T17:13:56.433Z,15.70
2019-05-02T17:16:27.232Z,15.30
2019-05-02T17:18:58.395Z,15.00
2019-05-02T17:21:35.065Z,14.60
2019-05-02T17:24:02.598Z,14.40
2019-05-02T17:26:33.373Z,14.20
2019-05-02T17:29:04.569Z,14.10
2019-05-02T17:31:35.496Z,14.20
2019-05-02T17:34:06.502Z,14.20
2019-05-02T17:36:37.116Z,14.20
2019-05-02T17:39:09.746Z,14.00
2019-05-02T17:41:42.361Z,13.80
2019-05-02T17:44:17.097Z,13.80
2019-05-02T17:46:45.445Z,13.80
2019-05-02T17:49:16.901Z,13.70
2019-05-02T17:52:06.077Z,13.60
2019-05-02T17:54:37.766Z,13.60
2019-05-02T17:57:08.433Z,13.60
2019-05-02T17:59:39.377Z,13.50
2019-05-02T18:02:12.487Z,13.40
2019-05-02T18:04:46.665Z,13.50
2019-05-02T18:07:18.072Z,13.50
2019-05-02T18:09:48.238Z,13.30
2019-05-02T18:12:19.136Z,13.40
2019-05-02T18:14:53.070Z,13.40
2019-05-02T18:17:27.447Z,13.30
2019-05-02T18:19:56.771Z,13.20
2019-05-02T18:22:27.821Z,13.20
2019-05-02T18:24:58.514Z,13.20
2019-05-02T18:27:29.231Z,13.10
2019-05-02T18:30:02.126Z,13.10
2019-05-02T18:32:32.636Z,13.10
2019-05-02T18:35:06.172Z,13.00
2019-05-02T18:37:37.195Z,13.00
2019-05-02T18:40:08.415Z,13.00
2019-05-02T18:42:39.310Z,12.90
2019-05-02T18:45:15.580Z,12.80
2019-05-02T18:47:47.762Z,12.60
2019-05-02T18:50:46.990Z,12.60
2019-05-02T18:53:18.571Z,12.50
2019-05-02T18:55:48.498Z,12.60
2019-05-02T18:58:19.496Z,12.70
2019-05-02T19:00:52.014Z,12.50
2019-05-02T19:03:23.880Z,12.50
2019-05-02T19:05:57.360Z,12.40
2019-05-02T19:08:31.469Z,12.40
2019-05-02T19:11:08.810Z,12.50
2019-05-02T19:13:37.559Z,12.50
2019-05-02T19:16:05.841Z,12.60
2019-05-02T19:18:36.674Z,12.50
2019-05-02T19:21:08.394Z,12.50
2019-05-02T19:23:39.478Z,12.30
2019-05-02T19:26:15.095Z,12.40
2019-05-02T19:29:03.328Z,12.30
2019-05-02T19:31:52.851Z,12.30
2019-05-02T19:34:26.828Z,12.20
2019-05-02T19:36:57.950Z,12.30
2019-05-02T19:39:32.289Z,12.30
2019-05-02T19:42:03.351Z,12.20
2019-05-02T19:44:34.291Z,12.20
2019-05-02T19:47:08.298Z,12.30
2019-05-02T19:49:47.255Z,12.30
2019-05-02T19:52:18.000Z,12.20
2019-05-02T19:54:48.973Z,12.20
2019-05-02T19:57:26.253Z,12.20
2019-05-02T19:59:57.073Z,12.10
2019-05-02T20:02:27.525Z,12.10
2019-05-02T20:04:58.512Z,12.20
2019-05-02T20:07:32.242Z,12.10
2019-05-02T20:10:02.916Z,12.10
2019-05-02T20:12:33.536Z,12.00
2019-05-02T20:15:04.696Z,12.00
2019-05-02T20:17:35.675Z,12.00
2019-05-02T20:20:12.398Z,12.00
2019-05-02T20:22:44.595Z,12.00
2019-05-02T20:25:15.653Z,12.00
2019-05-02T20:27:47.911Z,11.90
2019-05-02T20:30:18.855Z,12.00
2019-05-02T20:32:51.780Z,12.00
2019-05-02T20:35:22.772Z,12.00
2019-05-02T20:37:53.874Z,12.00
2019-05-02T20:40:31.917Z,11.80
2019-05-02T20:43:02.691Z,11.80
2019-05-02T20:45:33.559Z,11.80
2019-05-02T20:48:04.663Z,11.80
2019-05-02T20:50:35.577Z,11.80
2019-05-02T20:53:06.341Z,11.70
2019-05-02T20:55:36.999Z,11.80
2019-05-02T20:58:07.926Z,11.80
2019-05-02T21:00:38.769Z,11.80
2019-05-02T21:03:09.543Z,11.80
2019-05-02T21:05:51.940Z,11.70
2019-05-02T21:08:47.737Z,11.80
2019-05-02T21:11:18.629Z,11.90
2019-05-02T21:13:49.525Z,11.70
2019-05-02T21:16:21.820Z,11.70
2019-05-02T21:18:52.958Z,11.60
2019-05-02T21:21:25.707Z,11.70
2019-05-02T21:23:56.626Z,11.70
2019-05-02T21:26:27.565Z,11.70
2019-05-02T21:28:58.294Z,11.70
2019-05-02T21:31:28.958Z,11.80
2019-05-02T21:33:59.677Z,11.50
2019-05-02T21:36:31.960Z,11.60
2019-05-02T21:39:03.065Z,11.50
2019-05-02T21:41:33.722Z,11.60
2019-05-02T21:44:04.705Z,11.60
2019-05-02T21:46:35.662Z,11.60
2019-05-02T21:49:06.347Z,11.50
2019-05-02T21:51:42.943Z,11.50
2019-05-02T21:54:23.615Z,11.40
2019-05-02T21:56:58.486Z,11.50
2019-05-02T21:59:29.187Z,11.50
2019-05-02T22:02:02.434Z,11.50
2019-05-02T22:04:33.262Z,11.50
2019-05-02T22:07:03.910Z,11.40
2019-05-02T22:09:34.840Z,11.30
2019-05-02T22:12:05.831Z,11.40
2019-05-02T22:14:36.859Z,11.40
2019-05-02T22:17:07.754Z,11.40
2019-05-02T22:19:38.719Z,11.30
2019-05-02T22:22:09.396Z,11.30
2019-05-02T22:24:41.997Z,11.30
2019-05-02T22:27:12.699Z,11.30
2019-05-02T22:29:43.663Z,11.20
2019-05-02T22:32:14.435Z,11.20
2019-05-02T22:34:45.263Z,11.20
2019-05-02T22:37:17.719Z,11.20
2019-05-02T22:40:03.971Z,11.20
2019-05-02T22:42:35.004Z,11.20
2019-05-02T22:45:06.866Z,11.10
2019-05-02T22:47:37.631Z,11.10
2019-05-02T22:50:13.869Z,11.00
2019-05-02T22:52:42.940Z,11.00
2019-05-02T22:55:14.196Z,11.10
2019-05-02T22:57:44.874Z,11.00
2019-05-02T23:00:16.052Z,11.10
2019-05-02T23:02:48.045Z,11.00
2019-05-02T23:05:18.827Z,11.10
2019-05-02T23:07:50.169Z,11.00
2019-05-02T23:10:22.056Z,11.00
2019-05-02T23:12:52.982Z,10.90
2019-05-02T23:15:23.729Z,11.00
2019-05-02T23:17:54.536Z,11.00
2019-05-02T23:20:25.248Z,10.90
2019-05-02T23:22:56.028Z,10.90
2019-05-02T23:25:44.725Z,10.90
2019-05-02T23:28:19.910Z,10.90
2019-05-02T23:30:51.915Z,10.90
2019-05-02T23:33:24.520Z,11.00
2019-05-02T23:35:55.254Z,10.80
2019-05-02T23:38:25.865Z,10.80
2019-05-02T23:40:57.021Z,10.80
2019-05-02T23:43:27.852Z,10.80
2019-05-02T23:45:58.754Z,10.80
2019-05-02T23:48:29.431Z,10.90
2019-05-02T23:51:00.179Z,10.80
2019-05-02T23:53:31.578Z,10.80
2019-05-02T23:56:02.313Z,10.70
2019-05-02T23:58:33.015Z,10.80
